createdAt,value
2024-05-09T00:01:58.402Z,17.47
2024-05-09T00:04:01.665Z,17.46
2024-05-09T00:06:03.636Z,17.48
2024-05-09T00:08:06.047Z,17.50
2024-05-09T00:10:11.816Z,17.48
2024-05-09T00:12:19.875Z,17.44
2024-05-09T00:14:22.453Z,17.42
2024-05-09T00:16:24.124Z,17.39
2024-05-09T00:18:26.505Z,17.41
2024-05-09T00:20:36.492Z,17.43
2024-05-09T00:22:41.392Z,17.39
2024-05-09T00:24:44.344Z,17.39
2024-05-09T00:26:46.090Z,17.43
2024-05-09T00:28:47.904Z,17.43
2024-05-09T00:30:49.608Z,17.25
2024-05-09T00:32:51.766Z,17.26
2024-05-09T00:34:53.767Z,17.30
2024-05-09T00:36:55.422Z,17.35
2024-05-09T00:38:57.025Z,17.38
2024-05-09T00:40:58.731Z,17.38
2024-05-09T00:43:00.387Z,17.43
2024-05-09T00:45:02.156Z,17.49
2024-05-09T00:47:04.124Z,17.40
2024-05-09T00:49:06.019Z,17.32
2024-05-09T00:51:07.872Z,17.27
2024-05-09T00:53:13.129Z,17.31
2024-05-09T00:55:15.290Z,17.36
2024-05-09T00:57:17.060Z,17.43
2024-05-09T00:59:19.434Z,17.43
2024-05-09T01:01:23.262Z,17.45
2024-05-09T01:03:25.305Z,17.45
2024-05-09T01:05:27.042Z,17.40
2024-05-09T01:07:29.086Z,17.38
2024-05-09T01:09:30.839Z,17.38
2024-05-09T01:11:39.523Z,17.42
2024-05-09T01:13:41.281Z,17.43
2024-05-09T01:15:43.184Z,17.38
2024-05-09T01:17:46.242Z,17.28
2024-05-09T01:19:48.346Z,17.15
2024-05-09T01:21:50.098Z,17.16
2024-05-09T01:23:51.757Z,17.20
2024-05-09T01:25:53.471Z,17.23
2024-05-09T01:27:55.542Z,17.20
2024-05-09T01:29:57.232Z,17.13
2024-05-09T01:32:00.015Z,17.10
2024-05-09T01:34:01.766Z,17.11
2024-05-09T01:36:03.489Z,17.16
2024-05-09T01:38:05.388Z,17.18
2024-05-09T01:40:12.232Z,17.23
2024-05-09T01:42:17.374Z,17.23
2024-05-09T01:44:19.120Z,17.22
2024-05-09T01:46:20.890Z,17.19
2024-05-09T01:48:22.766Z,17.20
2024-05-09T01:50:35.845Z,17.12
2024-05-09T01:52:41.018Z,17.01
2024-05-09T01:54:42.702Z,17.01
2024-05-09T01:56:44.758Z,17.07
2024-05-09T01:58:46.546Z,17.11
2024-05-09T02:00:48.236Z,17.15
2024-05-09T02:02:50.281Z,17.19
2024-05-09T02:04:52.567Z,17.21
2024-05-09T02:06:54.245Z,17.12
2024-05-09T02:08:55.939Z,17.01
2024-05-09T02:10:58.848Z,16.97
2024-05-09T02:13:00.777Z,16.91
2024-05-09T02:15:02.496Z,16.68
2024-05-09T02:17:04.278Z,16.36
2024-05-09T02:19:06.434Z,16.06
2024-05-09T02:21:08.936Z,15.91
2024-05-09T02:23:10.983Z,15.79
2024-05-09T02:25:12.792Z,15.66
2024-05-09T02:27:14.392Z,15.31
2024-05-09T02:29:16.078Z,15.21
2024-05-09T02:31:17.881Z,15.25
2024-05-09T02:33:19.722Z,15.41
2024-05-09T02:35:21.546Z,15.61
2024-05-09T02:37:23.304Z,15.64
2024-05-09T02:39:24.929Z,15.66
2024-05-09T02:41:27.212Z,15.72
2024-05-09T02:43:29.230Z,15.84
2024-05-09T02:45:30.921Z,15.88
2024-05-09T02:47:32.667Z,15.92
2024-05-09T02:49:34.530Z,15.83
2024-05-09T02:51:36.386Z,15.64
2024-05-09T02:53:38.280Z,15.60
2024-05-09T02:55:40.310Z,15.66
2024-05-09T02:57:42.030Z,15.64
2024-05-09T02:59:43.759Z,15.61
2024-05-09T03:01:45.614Z,15.64
2024-05-09T03:03:48.586Z,15.72
2024-05-09T03:05:50.427Z,15.53
2024-05-09T03:07:52.126Z,15.57
2024-05-09T03:09:53.838Z,15.59
2024-05-09T03:11:55.633Z,15.58
2024-05-09T03:13:57.457Z,15.50
2024-05-09T03:15:59.894Z,15.42
2024-05-09T03:18:01.971Z,15.45
2024-05-09T03:20:05.238Z,15.46
2024-05-09T03:22:08.682Z,15.51
2024-05-09T03:24:10.778Z,15.53
2024-05-09T03:26:12.995Z,15.56
2024-05-09T03:28:15.016Z,15.62
2024-05-09T03:30:28.903Z,15.67
2024-05-09T03:32:37.413Z,15.66
2024-05-09T03:34:39.421Z,15.72
2024-05-09T03:36:41.455Z,15.80
2024-05-09T03:38:43.150Z,15.91
2024-05-09T03:40:49.313Z,16.03
2024-05-09T03:42:51.648Z,16.14
2024-05-09T03:44:56.261Z,16.20
2024-05-09T03:46:58.115Z,16.25
2024-05-09T03:48:59.838Z,16.27
2024-05-09T03:51:01.769Z,16.31
2024-05-09T03:53:03.856Z,16.30
2024-05-09T03:55:05.742Z,16.30
2024-05-09T03:57:07.480Z,16.34
2024-05-09T03:59:09.463Z,16.39
2024-05-09T04:01:11.196Z,16.45
2024-05-09T04:03:13.578Z,16.47
2024-05-09T04:05:15.489Z,16.51
2024-05-09T04:07:17.340Z,16.56
2024-05-09T04:09:18.974Z,16.64
2024-05-09T04:11:20.827Z,16.69
2024-05-09T04:13:22.705Z,16.69
2024-05-09T04:15:26.358Z,16.69
2024-05-09T04:17:28.985Z,16.69
2024-05-09T04:19:30.980Z,16.68
2024-05-09T04:21:32.795Z,16.61
2024-05-09T04:23:34.527Z,16.53
2024-05-09T04:25:36.374Z,16.57
2024-05-09T04:27:38.069Z,16.64
2024-05-09T04:29:40.072Z,16.68
2024-05-09T04:31:41.913Z,16.70
2024-05-09T04:33:44.124Z,16.76
2024-05-09T04:35:45.883Z,16.83
2024-05-09T04:37:47.687Z,16.81
2024-05-09T04:39:49.346Z,16.79
2024-05-09T04:41:51.133Z,16.74
2024-05-09T04:43:52.810Z,16.68
2024-05-09T04:45:54.460Z,16.63
2024-05-09T04:47:56.431Z,16.63
2024-05-09T04:49:58.274Z,16.69
2024-05-09T04:51:59.916Z,16.74
2024-05-09T04:54:02.089Z,16.80
2024-05-09T04:56:03.831Z,16.85
2024-05-09T04:58:08.098Z,16.72
2024-05-09T05:00:14.764Z,16.64
2024-05-09T05:02:23.344Z,16.53
2024-05-09T05:04:25.292Z,16.37
2024-05-09T05:06:26.928Z,16.28
2024-05-09T05:08:28.777Z,16.22
2024-05-09T05:10:35.785Z,16.22
2024-05-09T05:12:57.119Z,16.23
2024-05-09T05:14:58.753Z,15.97
2024-05-09T05:17:00.387Z,15.96
2024-05-09T05:19:02.365Z,15.83
2024-05-09T05:21:04.248Z,15.84
2024-05-09T05:23:08.031Z,15.97
2024-05-09T05:25:09.857Z,16.04
2024-05-09T05:27:11.478Z,16.15
2024-05-09T05:29:13.343Z,16.12
2024-05-09T05:31:15.741Z,16.02
2024-05-09T05:33:22.555Z,15.86
2024-05-09T05:35:24.859Z,15.84
2024-05-09T05:37:26.968Z,15.82
2024-05-09T05:39:28.651Z,15.81
2024-05-09T05:41:30.465Z,15.84
2024-05-09T05:43:32.253Z,15.86
2024-05-09T05:45:33.960Z,15.62
2024-05-09T05:47:36.933Z,15.59
2024-05-09T05:49:38.850Z,15.68
2024-05-09T05:51:40.566Z,15.73
2024-05-09T05:53:42.763Z,15.72
2024-05-09T05:55:45.872Z,15.77
2024-05-09T05:57:47.685Z,15.76
2024-05-09T05:59:49.371Z,15.71
2024-05-09T06:01:51.044Z,15.66
2024-05-09T06:03:52.935Z,15.61
2024-05-09T06:05:54.689Z,15.59
2024-05-09T06:07:56.419Z,15.48
2024-05-09T06:09:58.161Z,15.46
2024-05-09T06:11:59.943Z,15.39
2024-05-09T06:14:01.871Z,15.45
2024-05-09T06:16:05.111Z,15.38
2024-05-09T06:18:07.564Z,15.46
2024-05-09T06:20:16.739Z,15.26
2024-05-09T06:22:25.361Z,15.29
2024-05-09T06:24:27.003Z,15.24
2024-05-09T06:26:28.928Z,15.31
2024-05-09T06:28:30.682Z,15.41
2024-05-09T06:30:40.413Z,15.37
2024-05-09T06:32:44.235Z,15.31
2024-05-09T06:34:46.872Z,15.39
2024-05-09T06:36:48.708Z,15.46
2024-05-09T06:38:50.332Z,15.56
2024-05-09T06:40:52.137Z,15.61
2024-05-09T06:42:54.705Z,15.66
2024-05-09T06:44:59.312Z,15.69
2024-05-09T06:47:01.115Z,15.69
2024-05-09T06:49:08.096Z,15.71
2024-05-09T06:51:09.918Z,15.69
2024-05-09T06:53:13.596Z,15.68
2024-05-09T06:55:15.224Z,15.74
2024-05-09T06:57:16.910Z,15.77
2024-05-09T06:59:18.570Z,15.86
2024-05-09T07:01:20.531Z,15.95
2024-05-09T07:03:22.362Z,16.10
2024-05-09T07:05:24.210Z,16.11
2024-05-09T07:07:26.231Z,16.04
2024-05-09T07:09:28.239Z,16.07
2024-05-09T07:11:31.739Z,16.26
2024-05-09T07:13:33.466Z,16.41
2024-05-09T07:15:35.106Z,16.47
2024-05-09T07:17:36.964Z,16.48
2024-05-09T07:19:38.982Z,16.11
2024-05-09T07:21:40.736Z,16.20
2024-05-09T07:23:45.180Z,16.21
2024-05-09T07:25:48.002Z,16.13
2024-05-09T07:27:49.771Z,16.17
2024-05-09T07:29:51.526Z,16.12
2024-05-09T07:31:55.489Z,16.03
2024-05-09T07:33:57.628Z,16.15
2024-05-09T07:35:59.403Z,16.36
2024-05-09T07:38:01.071Z,16.56
2024-05-09T07:40:05.788Z,16.76
2024-05-09T07:42:07.615Z,16.91
2024-05-09T07:44:09.284Z,17.01
2024-05-09T07:47:14.084Z,16.78
2024-05-09T07:50:34.329Z,16.72
2024-05-09T07:52:39.182Z,16.51
2024-05-09T07:53:38.316Z,16.45
2024-05-09T07:55:39.546Z,16.46
2024-05-09T07:57:41.327Z,16.37
2024-05-09T07:59:44.086Z,16.52
2024-05-09T08:01:45.902Z,16.66
2024-05-09T08:03:47.780Z,16.49
2024-05-09T08:05:49.847Z,16.35
2024-05-09T08:07:51.873Z,16.35
2024-05-09T08:09:53.800Z,16.28
2024-05-09T08:11:55.491Z,16.27
2024-05-09T08:13:57.195Z,16.41
2024-05-09T08:15:59.095Z,16.55
2024-05-09T08:18:01.012Z,16.68
2024-05-09T08:20:05.512Z,16.73
2024-05-09T08:22:07.867Z,16.73
2024-05-09T08:24:10.585Z,16.69
2024-05-09T08:26:12.366Z,16.71
2024-05-09T08:28:15.343Z,16.68
2024-05-09T08:30:24.639Z,16.62
2024-05-09T08:32:32.539Z,16.55
2024-05-09T08:34:34.471Z,16.45
2024-05-09T08:36:37.638Z,16.41
2024-05-09T08:38:39.342Z,16.29
2024-05-09T08:40:41.506Z,16.14
2024-05-09T08:42:45.398Z,16.12
2024-05-09T08:44:48.319Z,16.06
2024-05-09T08:46:53.103Z,16.11
2024-05-09T08:48:55.644Z,16.16
2024-05-09T08:50:59.526Z,16.24
2024-05-09T08:53:01.227Z,16.32
2024-05-09T08:55:03.227Z,16.39
2024-05-09T08:57:05.180Z,16.43
2024-05-09T08:59:06.910Z,16.41
2024-05-09T09:01:08.660Z,16.40
2024-05-09T09:03:11.758Z,16.45
2024-05-09T09:05:17.305Z,16.50
2024-05-09T09:07:19.199Z,16.55
2024-05-09T09:09:21.283Z,16.59
2024-05-09T09:11:23.123Z,16.64
2024-05-09T09:13:25.266Z,16.67
2024-05-09T09:15:27.114Z,16.68
2024-05-09T09:17:28.898Z,16.73
2024-05-09T09:19:30.678Z,16.76
2024-05-09T09:21:32.534Z,16.82
2024-05-09T09:23:34.219Z,16.78
2024-05-09T09:25:35.857Z,16.83
2024-05-09T09:27:37.530Z,16.84
2024-05-09T09:29:39.721Z,16.83
2024-05-09T09:31:42.289Z,16.88
2024-05-09T09:33:44.269Z,16.95
2024-05-09T09:35:46.099Z,16.99
2024-05-09T09:37:47.744Z,17.10
2024-05-09T09:39:49.500Z,17.18
2024-05-09T09:41:51.198Z,17.17
2024-05-09T09:43:53.124Z,17.19
2024-05-09T09:45:55.981Z,17.24
2024-05-09T09:47:57.789Z,17.24
2024-05-09T09:49:59.445Z,17.27
2024-05-09T09:52:02.422Z,17.33
2024-05-09T09:54:04.129Z,17.39
2024-05-09T09:56:06.709Z,17.40
2024-05-09T09:58:10.847Z,17.47
2024-05-09T10:00:20.700Z,17.51
2024-05-09T10:02:25.978Z,17.59
2024-05-09T10:04:27.870Z,17.65
2024-05-09T10:06:29.691Z,17.71
2024-05-09T10:08:31.296Z,17.69
2024-05-09T10:10:35.207Z,17.73
2024-05-09T10:12:37.121Z,17.77
2024-05-09T10:14:56.548Z,17.81
2024-05-09T10:17:05.305Z,17.85
2024-05-09T10:19:07.057Z,17.88
2024-05-09T10:21:15.620Z,17.85
2024-05-09T10:23:27.290Z,17.88
2024-05-09T10:25:28.934Z,17.85
2024-05-09T10:27:30.745Z,17.79
2024-05-09T10:29:32.518Z,17.72
2024-05-09T10:31:34.420Z,17.67
2024-05-09T10:33:39.890Z,17.66
2024-05-09T10:35:50.588Z,17.66
2024-05-09T10:37:52.943Z,17.72
2024-05-09T10:39:56.005Z,17.63
2024-05-09T10:41:57.787Z,17.61
2024-05-09T10:43:59.761Z,17.65
2024-05-09T10:46:01.410Z,17.73
2024-05-09T10:48:03.405Z,17.84
2024-05-09T10:50:15.661Z,17.90
2024-05-09T10:52:24.421Z,18.00
2024-05-09T10:54:35.077Z,18.07
2024-05-09T10:56:36.814Z,18.13
2024-05-09T10:58:38.497Z,18.18
2024-05-09T11:00:40.252Z,18.25
2024-05-09T11:02:42.803Z,18.32
2024-05-09T11:04:48.056Z,18.32
2024-05-09T11:06:49.777Z,18.13
2024-05-09T11:08:51.396Z,18.11
2024-05-09T11:10:53.982Z,18.16
2024-05-09T11:12:55.875Z,18.04
2024-05-09T11:14:57.528Z,17.89
2024-05-09T11:17:05.946Z,17.84
2024-05-09T11:19:12.063Z,17.31
2024-05-09T11:21:14.115Z,16.67
2024-05-09T11:23:15.860Z,16.38
2024-05-09T11:25:17.752Z,16.29
2024-05-09T11:27:20.749Z,16.25
2024-05-09T11:29:22.373Z,16.00
2024-05-09T11:31:24.564Z,16.04
2024-05-09T11:33:26.436Z,15.96
2024-05-09T11:35:29.477Z,16.02
2024-05-09T11:37:34.685Z,16.05
2024-05-09T11:39:38.408Z,16.12
2024-05-09T11:41:40.138Z,16.42
2024-05-09T11:43:41.814Z,16.59
2024-05-09T11:45:44.749Z,16.36
2024-05-09T11:47:46.803Z,16.38
2024-05-09T11:49:48.567Z,16.25
2024-05-09T11:51:50.409Z,16.47
2024-05-09T11:53:52.244Z,16.47
2024-05-09T11:55:53.870Z,16.64
2024-05-09T11:57:55.669Z,16.72
2024-05-09T11:59:57.660Z,16.88
2024-05-09T12:01:59.377Z,16.89
2024-05-09T12:04:01.404Z,16.94
2024-05-09T12:06:03.900Z,16.95
2024-05-09T12:08:05.902Z,17.17
2024-05-09T12:10:11.947Z,16.98
2024-05-09T12:12:18.359Z,16.73
2024-05-09T12:14:20.127Z,16.47
2024-05-09T12:16:22.000Z,16.65
2024-05-09T12:18:23.864Z,16.48
2024-05-09T12:20:32.998Z,16.79
2024-05-09T12:22:38.847Z,17.05
2024-05-09T12:24:40.582Z,17.21
2024-05-09T12:26:42.336Z,17.32
2024-05-09T12:28:44.085Z,17.17
2024-05-09T12:30:46.230Z,16.93
2024-05-09T12:32:49.729Z,17.12
2024-05-09T12:34:51.657Z,17.35
2024-05-09T12:36:53.296Z,17.56
2024-05-09T12:38:55.025Z,17.31
2024-05-09T12:40:56.812Z,17.43
2024-05-09T12:42:58.687Z,17.43
2024-05-09T12:45:00.306Z,17.31
2024-05-09T12:47:02.091Z,17.39
2024-05-09T12:49:04.074Z,17.47
2024-05-09T12:51:06.161Z,17.53
2024-05-09T12:53:08.067Z,17.64
2024-05-09T12:55:10.700Z,17.78
2024-05-09T12:57:12.537Z,17.88
2024-05-09T12:59:14.881Z,17.93
2024-05-09T13:01:16.865Z,17.94
2024-05-09T13:03:18.665Z,17.95
2024-05-09T13:05:20.657Z,17.94
2024-05-09T13:07:22.564Z,17.93
2024-05-09T13:09:24.392Z,17.95
2024-05-09T13:11:26.637Z,17.87
2024-05-09T13:13:29.362Z,17.79
2024-05-09T13:15:31.447Z,17.77
2024-05-09T13:17:33.347Z,17.75
2024-05-09T13:19:35.050Z,17.78
2024-05-09T13:21:36.956Z,17.78
2024-05-09T13:23:38.702Z,17.78
2024-05-09T13:25:40.498Z,17.71
2024-05-09T13:27:45.430Z,17.66
2024-05-09T13:29:47.187Z,17.57
2024-05-09T13:31:48.899Z,17.55
2024-05-09T13:33:50.636Z,17.45
2024-05-09T13:35:52.486Z,17.38
2024-05-09T13:37:54.143Z,17.38
2024-05-09T13:39:55.815Z,17.25
2024-05-09T13:41:57.642Z,17.14
2024-05-09T13:43:59.390Z,17.03
2024-05-09T13:46:01.058Z,16.97
2024-05-09T13:48:04.545Z,16.93
2024-05-09T13:50:09.065Z,16.97
2024-05-09T13:52:13.140Z,16.88
2024-05-09T13:54:16.684Z,16.66
2024-05-09T13:56:19.552Z,16.43
2024-05-09T13:58:23.546Z,16.34
2024-05-09T14:02:32.124Z,16.24
2024-05-09T14:04:34.042Z,16.03
2024-05-09T14:06:36.592Z,15.93
2024-05-09T14:08:38.292Z,15.63
2024-05-09T14:10:44.251Z,15.46
2024-05-09T14:12:46.762Z,15.32
2024-05-09T14:14:48.602Z,15.18
2024-05-09T14:16:50.366Z,15.07
2024-05-09T14:18:52.225Z,14.89
2024-05-09T14:20:53.915Z,14.84
2024-05-09T14:22:55.602Z,14.81
2024-05-09T14:24:57.411Z,14.90
2024-05-09T14:26:59.061Z,14.86
2024-05-09T14:29:01.844Z,14.82
2024-05-09T14:31:03.895Z,14.82
2024-05-09T14:33:06.764Z,14.92
2024-05-09T14:35:09.585Z,15.05
2024-05-09T14:37:11.509Z,15.16
2024-05-09T14:39:13.196Z,15.15
2024-05-09T14:41:15.086Z,15.20
2024-05-09T14:43:17.130Z,15.25
2024-05-09T14:45:19.252Z,15.26
2024-05-09T14:47:20.990Z,15.26
2024-05-09T14:49:23.262Z,15.33
2024-05-09T14:51:25.292Z,15.41
2024-05-09T14:53:28.311Z,15.45
2024-05-09T14:55:30.077Z,15.50
2024-05-09T14:57:31.869Z,15.51
2024-05-09T14:59:34.214Z,15.57
2024-05-09T15:01:35.947Z,15.60
2024-05-09T15:03:37.777Z,15.57
2024-05-09T15:05:40.105Z,15.60
2024-05-09T15:07:43.499Z,15.57
2024-05-09T15:09:45.354Z,15.52
2024-05-09T15:11:47.775Z,15.49
2024-05-09T15:13:49.971Z,15.39
2024-05-09T15:15:51.924Z,15.42
2024-05-09T15:17:54.683Z,15.43
2024-05-09T15:19:56.445Z,15.44
2024-05-09T15:21:58.435Z,15.51
2024-05-09T15:24:00.486Z,15.50
2024-05-09T15:26:03.425Z,15.47
2024-05-09T15:28:07.934Z,15.47
2024-05-09T15:30:10.849Z,15.41
2024-05-09T15:32:14.772Z,15.38
2024-05-09T15:34:16.446Z,15.32
2024-05-09T15:36:18.156Z,15.20
2024-05-09T15:38:20.991Z,15.17
2024-05-09T15:40:31.468Z,15.01
2024-05-09T15:42:42.703Z,14.99
2024-05-09T15:44:52.851Z,14.91
2024-05-09T15:46:54.604Z,14.76
2024-05-09T15:48:56.447Z,14.42
2024-05-09T15:50:58.346Z,13.89
2024-05-09T15:53:01.071Z,13.55
2024-05-09T15:55:02.888Z,13.47
2024-05-09T15:57:05.076Z,13.49
2024-05-09T15:59:06.859Z,13.25
2024-05-09T16:01:09.050Z,13.19
2024-05-09T16:03:11.995Z,13.11
2024-05-09T16:05:14.682Z,13.15
2024-05-09T16:07:16.468Z,13.03
2024-05-09T16:09:18.325Z,13.06
2024-05-09T16:11:21.029Z,13.07
2024-05-09T16:13:22.914Z,13.19
2024-05-09T16:15:24.836Z,13.15
2024-05-09T16:17:27.391Z,13.09
2024-05-09T16:19:29.118Z,12.97
2024-05-09T16:21:30.774Z,13.08
2024-05-09T16:23:32.522Z,13.06
2024-05-09T16:25:34.159Z,13.05
2024-05-09T16:27:35.868Z,12.99
2024-05-09T16:29:37.653Z,13.10
2024-05-09T16:31:39.365Z,13.15
2024-05-09T16:33:41.364Z,13.28
2024-05-09T16:35:43.355Z,13.10
2024-05-09T16:37:45.054Z,12.98
2024-05-09T16:39:46.704Z,13.01
2024-05-09T16:41:48.304Z,13.04
2024-05-09T16:43:49.970Z,13.18
2024-05-09T16:45:51.706Z,13.28
2024-05-09T16:47:53.660Z,13.36
2024-05-09T16:49:55.365Z,13.32
2024-05-09T16:51:57.153Z,13.32
2024-05-09T16:53:59.010Z,13.34
2024-05-09T16:56:02.343Z,13.39
2024-05-09T16:58:04.784Z,13.52
2024-05-09T17:00:14.535Z,13.68
2024-05-09T17:02:20.100Z,13.83
2024-05-09T17:04:22.455Z,13.93
2024-05-09T17:06:24.201Z,14.04
2024-05-09T17:08:25.926Z,14.10
2024-05-09T17:10:32.635Z,14.10
2024-05-09T17:12:36.532Z,14.02
2024-05-09T17:14:38.269Z,14.01
2024-05-09T17:16:39.987Z,14.03
2024-05-09T17:18:41.752Z,14.01
2024-05-09T17:20:44.688Z,14.04
2024-05-09T17:22:46.564Z,13.98
2024-05-09T17:24:48.266Z,14.03
2024-05-09T17:26:50.171Z,14.08
2024-05-09T17:28:51.784Z,14.16
2024-05-09T17:30:53.635Z,14.22
2024-05-09T17:32:55.387Z,14.27
2024-05-09T17:34:57.300Z,14.28
2024-05-09T17:37:00.570Z,14.32
2024-05-09T17:39:02.244Z,14.32
2024-05-09T17:41:04.036Z,14.31
2024-05-09T17:43:07.261Z,14.31
2024-05-09T17:45:10.326Z,14.29
2024-05-09T17:47:12.028Z,14.35
2024-05-09T17:49:13.849Z,14.36
2024-05-09T17:51:15.603Z,14.30
2024-05-09T17:53:17.279Z,14.34
2024-05-09T17:55:19.129Z,14.40
2024-05-09T17:57:21.007Z,14.48
2024-05-09T17:59:22.834Z,14.45
2024-05-09T18:01:25.888Z,14.47
2024-05-09T18:03:27.792Z,14.45
2024-05-09T18:05:29.821Z,14.42
2024-05-09T18:07:31.964Z,14.39
2024-05-09T18:09:33.782Z,14.34
2024-05-09T18:11:37.711Z,14.39
2024-05-09T18:13:40.023Z,14.35
2024-05-09T18:15:41.962Z,14.37
2024-05-09T18:17:43.786Z,14.36
2024-05-09T18:19:45.601Z,14.34
2024-05-09T18:21:48.782Z,14.38
2024-05-09T18:23:52.634Z,14.40
2024-05-09T18:25:55.229Z,14.41
2024-05-09T18:27:57.498Z,14.39
2024-05-09T18:29:59.121Z,14.37
2024-05-09T18:32:00.871Z,14.37
2024-05-09T18:34:02.688Z,14.38
2024-05-09T18:36:04.380Z,14.40
2024-05-09T18:38:06.244Z,14.17
2024-05-09T18:40:12.153Z,13.54
2024-05-09T18:42:19.890Z,12.94
2024-05-09T18:44:21.642Z,12.94
2024-05-09T18:46:23.584Z,13.02
2024-05-09T18:48:25.332Z,12.72
2024-05-09T18:50:34.553Z,12.49
2024-05-09T18:52:39.795Z,12.49
2024-05-09T18:54:41.459Z,12.60
2024-05-09T18:56:43.104Z,12.53
2024-05-09T18:58:45.032Z,12.60
2024-05-09T19:00:49.800Z,12.55
2024-05-09T19:02:53.242Z,12.66
2024-05-09T19:04:55.373Z,12.79
2024-05-09T19:06:57.286Z,12.95
2024-05-09T19:08:58.905Z,12.84
2024-05-09T19:11:02.056Z,12.38
2024-05-09T19:13:08.670Z,12.26
2024-05-09T19:15:13.827Z,12.04
2024-05-09T19:17:16.933Z,12.14
2024-05-09T19:19:18.712Z,12.28
2024-05-09T19:21:20.526Z,12.35
2024-05-09T19:23:22.397Z,12.46
2024-05-09T19:25:24.023Z,12.57
2024-05-09T19:27:25.656Z,12.60
2024-05-09T19:29:27.474Z,12.65
2024-05-09T19:31:29.232Z,12.74
2024-05-09T19:33:32.273Z,12.67
2024-05-09T19:35:36.266Z,12.68
2024-05-09T19:37:37.970Z,12.67
2024-05-09T19:39:39.743Z,12.67
2024-05-09T19:41:41.480Z,12.73
2024-05-09T19:43:43.415Z,12.58
2024-05-09T19:45:45.336Z,12.44
2024-05-09T19:47:47.136Z,12.14
2024-05-09T19:49:48.812Z,12.06
2024-05-09T19:51:50.964Z,11.95
2024-05-09T19:53:54.302Z,11.85
2024-05-09T19:55:57.940Z,11.84
2024-05-09T19:58:01.619Z,11.77
2024-05-09T20:00:06.207Z,11.78
2024-05-09T20:02:11.412Z,11.77
2024-05-09T20:04:13.328Z,11.90
2024-05-09T20:06:15.072Z,11.96
2024-05-09T20:08:16.775Z,12.04
2024-05-09T20:10:23.824Z,12.21
2024-05-09T20:12:28.463Z,12.32
2024-05-09T20:14:30.153Z,12.28
2024-05-09T20:16:32.144Z,12.26
2024-05-09T20:18:34.037Z,12.29
2024-05-09T20:20:40.101Z,12.24
2024-05-09T20:22:44.651Z,12.18
2024-05-09T20:24:46.397Z,12.13
2024-05-09T20:26:48.045Z,11.95
2024-05-09T20:28:49.675Z,11.86
2024-05-09T20:30:51.517Z,11.79
2024-05-09T20:32:53.289Z,11.48
2024-05-09T20:34:55.010Z,11.32
2024-05-09T20:36:57.148Z,11.28
2024-05-09T20:38:58.983Z,11.19
2024-05-09T20:41:00.655Z,11.08
2024-05-09T20:43:02.708Z,11.15
2024-05-09T20:45:04.697Z,11.23
2024-05-09T20:47:06.421Z,11.41
2024-05-09T20:49:08.226Z,11.43
2024-05-09T20:51:10.002Z,11.42
2024-05-09T20:53:13.007Z,11.47
2024-05-09T20:55:17.114Z,11.61
2024-05-09T20:57:18.835Z,11.65
2024-05-09T20:59:20.512Z,11.58
2024-05-09T21:01:22.212Z,11.69
2024-05-09T21:03:25.387Z,11.81
2024-05-09T21:05:27.192Z,11.77
2024-05-09T21:07:29.089Z,11.89
2024-05-09T21:09:30.783Z,12.01
2024-05-09T21:11:32.927Z,12.12
2024-05-09T21:13:35.596Z,12.23
2024-05-09T21:15:37.336Z,12.32
2024-05-09T21:17:39.450Z,12.36
2024-05-09T21:19:41.137Z,12.43
2024-05-09T21:21:42.898Z,12.51
2024-05-09T21:23:44.623Z,12.57
2024-05-09T21:25:46.425Z,12.62
2024-05-09T21:27:48.167Z,12.69
2024-05-09T21:29:49.981Z,12.76
2024-05-09T21:31:51.660Z,12.80
2024-05-09T21:33:53.377Z,12.85
2024-05-09T21:35:56.494Z,12.85
2024-05-09T21:37:58.232Z,12.91
2024-05-09T21:40:01.091Z,12.96
2024-05-09T21:42:02.890Z,13.03
2024-05-09T21:44:04.727Z,13.07
2024-05-09T21:46:06.430Z,13.11
2024-05-09T21:48:08.478Z,13.11
2024-05-09T21:50:18.514Z,13.11
2024-05-09T21:52:24.836Z,13.06
2024-05-09T21:54:26.502Z,12.93
2024-05-09T21:56:28.131Z,12.80
2024-05-09T21:58:29.816Z,12.65
2024-05-09T22:00:36.969Z,12.65
2024-05-09T22:02:43.199Z,12.30
2024-05-09T22:04:45.116Z,12.03
2024-05-09T22:06:46.973Z,11.93
2024-05-09T22:08:48.626Z,11.88
2024-05-09T22:10:51.249Z,12.00
2024-05-09T22:12:53.105Z,11.87
2024-05-09T22:14:55.331Z,11.86
2024-05-09T22:16:57.156Z,11.81
2024-05-09T22:18:59.308Z,11.83
2024-05-09T22:21:00.968Z,11.55
2024-05-09T22:23:02.677Z,11.65
2024-05-09T22:25:04.562Z,11.76
2024-05-09T22:27:06.240Z,11.88
2024-05-09T22:29:07.898Z,11.97
2024-05-09T22:31:09.623Z,12.04
2024-05-09T22:33:12.335Z,11.95
2024-05-09T22:35:14.419Z,11.80
2024-05-09T22:37:16.243Z,11.82
2024-05-09T22:39:18.111Z,11.83
2024-05-09T22:41:19.855Z,11.85
2024-05-09T22:43:23.827Z,11.67
2024-05-09T22:45:26.782Z,11.58
2024-05-09T22:47:28.578Z,11.52
2024-05-09T22:49:30.240Z,11.55
2024-05-09T22:51:31.909Z,11.69
2024-05-09T22:53:33.666Z,11.59
2024-05-09T22:55:35.303Z,11.39
2024-05-09T22:57:37.010Z,11.24
2024-05-09T22:59:38.872Z,11.23
2024-05-09T23:01:40.542Z,11.33
2024-05-09T23:03:42.529Z,11.51
2024-05-09T23:05:44.297Z,11.56
2024-05-09T23:07:45.941Z,11.72
2024-05-09T23:09:47.640Z,11.85
2024-05-09T23:11:51.672Z,11.98
2024-05-09T23:13:53.406Z,11.97
2024-05-09T23:15:55.074Z,11.90
2024-05-09T23:17:58.104Z,11.96
2024-05-09T23:20:00.536Z,11.96
2024-05-09T23:22:02.253Z,12.00
2024-05-09T23:24:04.068Z,11.93
2024-05-09T23:26:05.765Z,11.99
2024-05-09T23:28:07.901Z,11.96
2024-05-09T23:30:12.299Z,11.91
2024-05-09T23:32:14.259Z,11.88
2024-05-09T23:34:16.063Z,11.84
2024-05-09T23:36:17.878Z,11.86
2024-05-09T23:38:22.502Z,11.75
2024-05-09T23:40:36.881Z,11.53
2024-05-09T23:42:42.061Z,11.57
2024-05-09T23:44:43.795Z,11.39
2024-05-09T23:46:45.592Z,11.38
2024-05-09T23:48:47.633Z,11.48
2024-05-09T23:50:49.312Z,11.58
2024-05-09T23:52:50.910Z,11.71
2024-05-09T23:54:52.685Z,11.87
2024-05-09T23:56:54.782Z,11.94
2024-05-09T23:58:56.412Z,11.97
